Time;durP1;ratioP1;P1;durP2;ratioP2;P2;SDS_P1;SDS_P2;PMS_P1;PMS_P2;Temp;Humidity;BMP_temperature;BMP_pressure;BME280_temperature;BME280_humidity;BME280_pressure;Samples;Min_cycle;Max_cycle;Signal;HPM_P1;HPM_P2
2023/07/06 00:01:57;;;;;;;6.27;3.90;;;16.50;74.80;;;;;;4975722;28;20457;-69
2023/07/06 00:04:23;;;;;;;5.10;3.73;;;16.50;74.30;;;;;;4975604;28;20901;-69
2023/07/06 00:06:51;;;;;;;5.13;3.30;;;16.20;75.00;;;;;;4974895;28;20914;-69
2023/07/06 00:09:18;;;;;;;5.27;3.23;;;16.10;76.00;;;;;;4975960;28;20443;-69
2023/07/06 00:11:47;;;;;;;5.67;3.70;;;16.10;76.90;;;;;;4975784;28;20525;-69
2023/07/06 00:14:16;;;;;;;5.70;3.60;;;16.20;77.00;;;;;;4975452;28;20437;-69
2023/07/06 00:16:48;;;;;;;4.97;3.53;;;16.10;77.20;;;;;;4975947;28;20755;-69
2023/07/06 00:19:18;;;;;;;4.80;3.53;;;16.20;77.40;;;;;;4975384;28;20972;-69
2023/07/06 00:21:45;;;;;;;4.17;3.20;;;16.30;77.80;;;;;;4975465;28;20434;-69
2023/07/06 00:24:15;;;;;;;4.90;3.00;;;16.30;77.70;;;;;;4975697;28;20466;-69
2023/07/06 00:26:42;;;;;;;5.73;3.70;;;16.30;77.60;;;;;;4975636;28;20782;-69
2023/07/06 00:29:10;;;;;;;5.63;3.30;;;16.30;78.20;;;;;;4975511;28;20475;-69
2023/07/06 00:31:51;;;;;;;5.33;3.57;;;16.40;77.30;;;;;;4975591;28;20565;-70
2023/07/06 00:34:18;;;;;;;8.53;3.60;;;16.40;77.10;;;;;;4975297;28;20518;-69
2023/07/06 00:36:46;;;;;;;5.77;3.33;;;16.40;77.40;;;;;;4975432;28;20435;-69
2023/07/06 00:39:14;;;;;;;5.33;3.57;;;16.40;77.90;;;;;;4975586;28;20530;-69
2023/07/06 00:41:43;;;;;;;6.13;3.50;;;16.40;77.90;;;;;;4975262;28;20497;-69
2023/07/06 00:44:43;;;;;;;4.90;3.60;;;16.40;78.00;;;;;;4975048;28;20484;-69
2023/07/06 00:47:13;;;;;;;6.23;4.10;;;16.40;78.20;;;;;;4975393;28;20515;-69
2023/07/06 00:49:40;;;;;;;4.37;2.93;;;16.40;78.30;;;;;;4975363;28;20525;-69
2023/07/06 00:52:10;;;;;;;5.57;3.37;;;16.40;78.50;;;;;;4974775;28;20442;-69
2023/07/06 00:54:40;;;;;;;6.57;3.80;;;16.40;78.50;;;;;;4975143;28;20447;-69
2023/07/06 00:57:09;;;;;;;7.10;3.40;;;16.40;78.20;;;;;;4975218;28;20454;-69
2023/07/06 00:59:40;;;;;;;4.70;3.20;;;16.40;78.20;;;;;;4974759;28;20470;-69
2023/07/06 01:02:14;;;;;;;6.50;4.00;;;16.40;78.30;;;;;;4974896;28;20901;-70
2023/07/06 01:04:42;;;;;;;5.17;3.40;;;16.40;78.00;;;;;;4974642;28;20467;-69
2023/07/06 01:07:11;;;;;;;5.47;3.43;;;16.40;78.40;;;;;;4974670;28;20495;-69
2023/07/06 01:09:39;;;;;;;4.77;3.63;;;16.40;79.10;;;;;;4974973;28;20491;-69
2023/07/06 01:12:06;;;;;;;5.50;3.47;;;16.40;79.60;;;;;;4974938;28;20435;-69
2023/07/06 01:14:33;;;;;;;7.10;3.93;;;16.40;80.00;;;;;;4974630;28;20838;-69
2023/07/06 01:17:08;;;;;;;6.27;4.00;;;16.40;80.00;;;;;;4974818;28;20463;-70
2023/07/06 01:20:01;;;;;;;9.13;3.83;;;16.40;79.70;;;;;;4975017;28;20503;-69
2023/07/06 01:22:47;;;;;;;11.60;3.67;;;16.40;79.30;;;;;;4972012;28;20529;-69
2023/07/06 01:25:26;;;;;;;6.63;3.73;;;16.30;79.30;;;;;;4974464;28;20513;-69
2023/07/06 01:28:10;;;;;;;5.17;3.20;;;16.30;79.90;;;;;;4974401;28;20477;-70
2023/07/06 01:31:05;;;;;;;5.43;2.70;;;16.30;79.80;;;;;;4974810;28;20599;-69
2023/07/06 01:33:40;;;;;;;5.17;3.13;;;16.30;80.10;;;;;;4971015;28;20445;-69
2023/07/06 01:36:14;;;;;;;6.00;3.33;;;16.30;80.20;;;;;;4974666;28;20458;-70
2023/07/06 01:38:41;;;;;;;6.80;3.10;;;16.30;80.30;;;;;;4974632;28;20431;-71
2023/07/06 01:41:10;;;;;;;4.97;2.80;;;16.30;80.20;;;;;;4974546;28;20518;-70
2023/07/06 01:43:38;;;;;;;6.03;3.17;;;16.20;80.40;;;;;;4974574;28;20498;-69
2023/07/06 01:46:05;;;;;;;5.50;3.37;;;16.20;80.70;;;;;;4974608;28;20440;-70
2023/07/06 01:48:34;;;;;;;5.37;3.30;;;16.10;81.10;;;;;;4974300;28;20438;-70
2023/07/06 01:51:13;;;;;;;7.57;3.90;;;16.10;81.50;;;;;;4974160;28;20475;-70
2023/07/06 01:53:49;;;;;;;5.53;3.43;;;16.10;81.90;;;;;;4974651;28;20421;-69
2023/07/06 01:56:22;;;;;;;5.43;3.33;;;16.10;82.00;;;;;;4974598;28;20461;-69
2023/07/06 01:58:55;;;;;;;7.47;3.63;;;16.00;81.80;;;;;;4974481;28;20424;-69
2023/07/06 02:01:27;;;;;;;5.00;3.03;;;16.00;81.60;;;;;;4974183;28;20882;-69
2023/07/06 02:03:56;;;;;;;7.40;3.80;;;16.00;81.40;;;;;;4974547;28;20471;-69
2023/07/06 02:06:23;;;;;;;5.70;4.20;;;15.90;81.50;;;;;;4974326;28;20470;-69
2023/07/06 02:08:51;;;;;;;6.87;4.53;;;15.90;81.90;;;;;;4974088;28;20439;-73
2023/07/06 02:11:23;;;;;;;5.33;3.60;;;15.90;82.10;;;;;;4974333;28;20478;-69
2023/07/06 02:13:50;;;;;;;6.40;4.10;;;15.80;82.20;;;;;;4974511;28;20423;-69
2023/07/06 02:16:17;;;;;;;7.40;4.00;;;15.80;82.20;;;;;;4974359;28;20436;-69
2023/07/06 02:18:44;;;;;;;7.23;3.67;;;15.70;82.40;;;;;;4974492;28;20465;-69
2023/07/06 02:21:13;;;;;;;9.27;3.23;;;15.60;82.60;;;;;;4974030;28;20439;-69
2023/07/06 02:23:40;;;;;;;5.63;4.17;;;15.60;82.70;;;;;;4974302;28;20434;-69
2023/07/06 02:26:07;;;;;;;5.17;3.63;;;15.50;83.30;;;;;;4974283;28;20435;-69
2023/07/06 02:28:35;;;;;;;5.47;3.57;;;15.50;83.90;;;;;;4974258;28;20431;-70
2023/07/06 02:31:04;;;;;;;5.03;3.43;;;15.50;83.30;;;;;;4976750;28;20485;-69
2023/07/06 02:33:34;;;;;;;9.23;4.70;;;15.50;83.20;;;;;;4977676;28;20442;-73
2023/07/06 02:36:01;;;;;;;6.67;3.73;;;15.40;83.00;;;;;;4977745;28;20438;-69
2023/07/06 02:38:30;;;;;;;6.10;3.73;;;15.40;83.50;;;;;;4977625;28;20928;-69
2023/07/06 02:40:58;;;;;;;5.20;3.43;;;15.30;84.10;;;;;;4977270;28;20448;-69
2023/07/06 02:43:26;;;;;;;4.37;3.13;;;15.30;84.40;;;;;;4977195;28;20553;-69
2023/07/06 02:45:53;;;;;;;5.87;3.13;;;15.30;84.30;;;;;;4977568;28;20472;-69
2023/07/06 02:48:20;;;;;;;5.10;3.27;;;15.30;83.60;;;;;;4977574;28;20469;-69
2023/07/06 02:50:49;;;;;;;6.27;3.50;;;15.30;83.30;;;;;;4977057;28;20528;-74
2023/07/06 02:53:16;;;;;;;5.33;3.60;;;15.20;83.90;;;;;;4977415;28;20434;-69
2023/07/06 02:55:47;;;;;;;6.00;3.80;;;15.10;84.30;;;;;;4977335;28;20434;-69
2023/07/06 02:58:15;;;;;;;5.03;3.17;;;15.10;84.50;;;;;;4977079;28;20899;-69
2023/07/06 03:00:42;;;;;;;4.73;3.20;;;15.10;84.80;;;;;;4977039;28;21005;-69
2023/07/06 03:03:09;;;;;;;5.63;4.03;;;15.10;85.30;;;;;;4977178;28;20426;-70
2023/07/06 03:05:36;;;;;;;8.47;3.63;;;15.10;85.90;;;;;;4977218;28;20811;-70
2023/07/06 03:08:03;;;;;;;5.63;3.87;;;15.10;86.50;;;;;;4977136;28;20434;-69
2023/07/06 03:10:31;;;;;;;7.40;3.63;;;15.00;87.00;;;;;;4976807;28;20466;-69
2023/07/06 03:13:01;;;;;;;6.90;4.17;;;15.10;87.00;;;;;;4976773;28;20440;-69
2023/07/06 03:15:28;;;;;;;6.07;3.60;;;15.10;86.30;;;;;;4977092;28;20785;-69
2023/07/06 03:17:55;;;;;;;5.07;3.00;;;15.10;86.40;;;;;;4976923;28;20444;-69
2023/07/06 03:20:23;;;;;;;5.80;4.07;;;15.10;86.70;;;;;;4976814;28;20928;-69
2023/07/06 03:22:52;;;;;;;6.70;4.97;;;15.00;86.10;;;;;;4976454;28;20574;-69
2023/07/06 03:25:20;;;;;;;6.83;4.90;;;15.00;86.70;;;;;;4976563;28;20909;-69
2023/07/06 03:27:47;;;;;;;5.47;4.47;;;15.00;87.00;;;;;;4976422;28;20432;-69
2023/07/06 03:30:17;;;;;;;6.17;4.00;;;15.00;86.60;;;;;;4976542;28;20448;-69
2023/07/06 03:32:44;;;;;;;6.67;4.40;;;15.00;87.10;;;;;;4976656;28;20482;-70
2023/07/06 03:35:13;;;;;;;7.20;4.40;;;15.00;87.90;;;;;;4976735;28;20495;-69
2023/07/06 03:37:42;;;;;;;9.10;4.50;;;14.90;88.30;;;;;;4976244;28;20976;-69
2023/07/06 03:40:11;;;;;;;5.00;3.97;;;14.90;88.60;;;;;;4976567;28;20525;-69
2023/07/06 03:42:40;;;;;;;6.80;3.60;;;15.00;88.80;;;;;;4975051;28;20470;-69
2023/07/06 03:45:08;;;;;;;5.40;4.30;;;14.90;89.20;;;;;;4976169;28;20442;-69
2023/07/06 03:47:37;;;;;;;5.40;3.67;;;14.90;89.70;;;;;;4976078;28;20436;-69
2023/07/06 03:50:05;;;;;;;7.03;3.70;;;14.90;89.90;;;;;;4981897;28;20453;-69
2023/07/06 03:52:32;;;;;;;5.60;3.90;;;14.90;90.10;;;;;;4984060;28;21008;-69
2023/07/06 03:55:00;;;;;;;5.03;3.67;;;15.00;90.20;;;;;;4995574;28;20433;-69
2023/07/06 03:57:31;;;;;;;5.60;3.90;;;15.00;90.20;;;;;;4995087;28;20453;-70
2023/07/06 03:59:58;;;;;;;5.20;3.80;;;15.00;90.20;;;;;;4995165;28;20421;-69
2023/07/06 04:02:30;;;;;;;4.80;3.20;;;15.00;90.20;;;;;;4995122;28;20436;-69
2023/07/06 04:04:58;;;;;;;6.80;3.70;;;15.00;89.60;;;;;;4995166;28;20429;-69
2023/07/06 04:07:25;;;;;;;5.60;3.50;;;15.00;89.20;;;;;;4995290;28;20821;-69
2023/07/06 04:09:53;;;;;;;5.30;3.60;;;15.00;88.90;;;;;;4994828;28;20431;-69
2023/07/06 04:12:20;;;;;;;4.93;3.40;;;15.00;89.00;;;;;;4995180;28;20472;-69
2023/07/06 04:14:47;;;;;;;6.60;3.53;;;15.00;89.00;;;;;;4995080;28;20503;-69
2023/07/06 04:17:16;;;;;;;5.47;3.60;;;15.00;89.30;;;;;;4995235;28;20441;-69
2023/07/06 04:19:44;;;;;;;6.33;4.90;;;15.00;90.00;;;;;;4995178;28;20436;-69
2023/07/06 04:22:12;;;;;;;6.47;4.00;;;15.00;90.00;;;;;;4994951;28;20844;-69
2023/07/06 04:24:39;;;;;;;5.80;3.97;;;15.10;90.10;;;;;;4994986;28;20430;-69
2023/07/06 04:27:07;;;;;;;5.87;4.33;;;15.10;90.50;;;;;;4995194;28;20529;-69
2023/07/06 04:29:34;;;;;;;7.20;3.83;;;14.90;91.00;;;;;;4994889;28;20431;-69
2023/07/06 04:32:01;;;;;;;6.90;4.53;;;14.80;91.20;;;;;;4994951;28;20465;-69
2023/07/06 04:34:30;;;;;;;6.33;4.30;;;14.80;91.50;;;;;;4994561;28;20958;-69
2023/07/06 04:36:57;;;;;;;5.63;4.07;;;14.80;92.00;;;;;;4996418;28;20445;-70
2023/07/06 04:39:27;;;;;;;7.07;4.07;;;14.80;92.30;;;;;;5004382;28;20442;-69
2023/07/06 04:41:54;;;;;;;5.03;4.07;;;14.80;92.50;;;;;;4995417;28;20469;-69
2023/07/06 04:44:21;;;;;;;6.70;3.73;;;14.90;92.20;;;;;;4994812;28;20778;-69
2023/07/06 04:46:48;;;;;;;5.27;3.20;;;14.90;92.30;;;;;;4994429;28;20916;-69
2023/07/06 04:49:15;;;;;;;5.40;3.90;;;15.00;92.60;;;;;;4994058;28;20915;-69
2023/07/06 04:51:42;;;;;;;6.07;4.00;;;15.10;92.90;;;;;;4994129;28;20473;-69
2023/07/06 04:54:09;;;;;;;6.27;4.00;;;15.20;92.70;;;;;;4994395;28;20435;-69
2023/07/06 04:56:38;;;;;;;6.37;3.97;;;15.20;92.60;;;;;;4994314;28;20932;-69
2023/07/06 04:59:05;;;;;;;7.10;4.00;;;15.40;92.60;;;;;;4994204;28;20470;-69
2023/07/06 05:01:32;;;;;;;5.03;3.93;;;15.50;92.60;;;;;;4994317;28;20481;-69
2023/07/06 05:03:59;;;;;;;6.53;4.70;;;15.50;92.60;;;;;;4994625;28;20823;-70
2023/07/06 05:06:27;;;;;;;5.43;3.90;;;15.60;92.60;;;;;;4994185;28;20439;-69
2023/07/06 05:08:55;;;;;;;5.30;4.20;;;15.70;92.40;;;;;;4994589;28;20437;-70
2023/07/06 05:11:24;;;;;;;5.50;4.03;;;15.80;92.30;;;;;;4994457;28;20481;-70
2023/07/06 05:13:55;;;;;;;5.87;4.00;;;15.90;92.20;;;;;;4990866;28;20531;-69
2023/07/06 05:16:27;;;;;;;5.97;4.07;;;16.00;91.80;;;;;;4983433;28;20868;-69
2023/07/06 05:18:54;;;;;;;7.37;4.20;;;16.10;91.90;;;;;;4993726;28;20430;-69
2023/07/06 05:21:21;;;;;;;5.97;4.27;;;16.20;91.90;;;;;;4993622;28;20438;-70
2023/07/06 05:23:48;;;;;;;5.77;3.70;;;16.20;91.40;;;;;;4993331;28;20475;-69
2023/07/06 05:26:15;;;;;;;7.50;3.83;;;16.30;91.20;;;;;;4993299;28;20435;-70
2023/07/06 05:28:44;;;;;;;6.73;4.40;;;16.40;91.10;;;;;;4993623;28;20570;-69
2023/07/06 05:31:13;;;;;;;5.27;3.83;;;16.40;91.00;;;;;;4992544;28;20496;-69
2023/07/06 05:33:40;;;;;;;5.97;3.53;;;16.50;91.20;;;;;;4993109;28;20521;-69
2023/07/06 05:36:07;;;;;;;6.17;3.90;;;16.60;91.30;;;;;;4993374;28;20433;-70
2023/07/06 05:38:34;;;;;;;6.37;4.50;;;16.70;91.20;;;;;;4993099;28;21022;-70
2023/07/06 05:41:03;;;;;;;5.80;3.90;;;16.70;90.90;;;;;;4993743;28;20826;-71
2023/07/06 05:43:30;;;;;;;4.50;3.07;;;16.80;90.50;;;;;;4993861;28;20539;-69
2023/07/06 05:45:57;;;;;;;5.90;3.87;;;16.90;90.30;;;;;;4994194;28;20436;-70
2023/07/06 05:48:26;;;;;;;7.37;3.47;;;17.00;90.50;;;;;;4993721;28;20496;-70
2023/07/06 05:50:53;;;;;;;8.63;3.80;;;17.10;90.20;;;;;;4993978;28;20812;-69
2023/07/06 05:53:20;;;;;;;5.10;3.53;;;17.10;89.90;;;;;;4993877;28;20468;-71
2023/07/06 05:55:47;;;;;;;6.47;3.70;;;17.20;89.80;;;;;;4993829;28;20430;-70
2023/07/06 05:58:16;;;;;;;9.27;6.03;;;17.30;90.00;;;;;;4993655;28;20434;-70
2023/07/06 06:00:43;;;;;;;7.27;4.70;;;17.30;89.90;;;;;;4993791;28;20438;-70
2023/07/06 06:03:11;;;;;;;5.97;4.10;;;17.40;89.70;;;;;;4993667;28;20913;-70
2023/07/06 06:05:42;;;;;;;5.00;3.40;;;17.50;89.40;;;;;;4995663;28;20435;-70
2023/07/06 06:08:09;;;;;;;5.10;3.40;;;17.50;89.50;;;;;;4997443;28;20425;-69
2023/07/06 06:10:36;;;;;;;9.30;4.87;;;17.60;89.60;;;;;;4997748;28;20477;-70
2023/07/06 06:13:03;;;;;;;6.93;4.10;;;17.70;88.70;;;;;;4997443;28;20473;-70
2023/07/06 06:15:30;;;;;;;6.10;4.13;;;17.80;88.00;;;;;;4997163;28;20437;-70
2023/07/06 06:17:57;;;;;;;7.03;5.07;;;17.90;86.40;;;;;;4997504;28;20507;-71
2023/07/06 06:20:24;;;;;;;4.90;3.40;;;17.90;86.50;;;;;;4997175;28;20469;-70
2023/07/06 06:22:52;;;;;;;5.03;3.03;;;18.00;86.60;;;;;;4997083;28;20478;-70
2023/07/06 06:25:19;;;;;;;4.53;2.90;;;18.10;86.20;;;;;;4997350;28;20489;-70
2023/07/06 06:27:47;;;;;;;4.90;3.23;;;18.20;86.20;;;;;;4997094;28;20970;-69
2023/07/06 06:30:15;;;;;;;5.30;3.40;;;18.30;85.40;;;;;;4997317;28;20434;-70
2023/07/06 06:32:43;;;;;;;6.07;3.30;;;18.40;85.00;;;;;;4997225;28;20469;-70
2023/07/06 06:35:24;;;;;;;4.57;2.53;;;18.40;85.20;;;;;;4997205;28;20498;-69
2023/07/06 06:37:52;;;;;;;7.37;3.30;;;18.40;83.40;;;;;;4997261;28;20477;-69
2023/07/06 06:40:20;;;;;;;4.20;2.83;;;18.40;83.20;;;;;;4997053;28;20500;-70
2023/07/06 06:42:48;;;;;;;5.20;3.00;;;18.40;83.80;;;;;;4996512;28;20462;-70
2023/07/06 06:45:15;;;;;;;5.70;2.83;;;18.40;83.90;;;;;;4996813;28;20604;-70
2023/07/06 06:47:42;;;;;;;5.17;3.17;;;18.50;84.50;;;;;;4996673;28;20470;-69
2023/07/06 06:50:11;;;;;;;4.97;3.17;;;18.60;85.00;;;;;;4996644;28;20459;-69
2023/07/06 06:52:38;;;;;;;5.60;3.70;;;18.60;85.00;;;;;;4996569;28;20970;-71
2023/07/06 06:55:08;;;;;;;4.97;3.40;;;18.60;83.40;;;;;;4996887;28;20856;-70
2023/07/06 06:57:35;;;;;;;4.60;3.67;;;18.70;81.80;;;;;;4996702;28;20442;-69
2023/07/06 07:00:06;;;;;;;8.53;4.70;;;18.70;82.00;;;;;;4996868;28;20434;-69
2023/07/06 07:02:33;;;;;;;6.50;4.17;;;18.80;81.90;;;;;;4996703;28;20427;-69
2023/07/06 07:05:00;;;;;;;6.30;3.60;;;18.80;80.90;;;;;;4994118;28;20463;-71
2023/07/06 07:07:28;;;;;;;6.60;4.40;;;18.90;81.20;;;;;;4996369;28;20439;-70
2023/07/06 07:09:55;;;;;;;5.60;3.47;;;18.90;80.70;;;;;;4996332;28;20438;-70
2023/07/06 07:12:25;;;;;;;6.73;3.40;;;19.10;81.40;;;;;;4996594;28;20463;-70
2023/07/06 07:14:53;;;;;;;5.50;3.40;;;19.20;81.60;;;;;;4996572;28;20438;-70
2023/07/06 07:17:20;;;;;;;3.80;2.73;;;19.20;79.00;;;;;;4995895;28;20432;-69
2023/07/06 07:19:47;;;;;;;6.10;3.73;;;19.30;80.30;;;;;;4996649;28;20917;-70
2023/07/06 07:22:15;;;;;;;7.43;4.03;;;19.40;80.40;;;;;;4996231;28;20430;-69
2023/07/06 07:24:42;;;;;;;7.27;4.00;;;19.40;79.90;;;;;;4996260;28;20449;-70
2023/07/06 07:27:11;;;;;;;5.37;3.30;;;19.50;80.20;;;;;;4996550;28;20447;-70
2023/07/06 07:29:42;;;;;;;5.23;3.47;;;19.50;80.00;;;;;;4996171;28;20441;-70
2023/07/06 07:32:10;;;;;;;5.30;3.50;;;19.60;77.50;;;;;;4996377;28;20467;-70
2023/07/06 07:34:37;;;;;;;8.77;3.30;;;19.60;76.00;;;;;;4996245;28;20432;-70
2023/07/06 07:37:07;;;;;;;5.23;3.27;;;19.60;76.30;;;;;;4996210;28;20514;-70
2023/07/06 07:39:34;;;;;;;6.00;3.37;;;19.50;77.70;;;;;;4996277;28;20425;-70
2023/07/06 07:42:02;;;;;;;7.20;3.40;;;19.40;77.80;;;;;;4995987;28;20471;-70
2023/07/06 07:44:33;;;;;;;4.77;3.17;;;19.40;76.70;;;;;;4996307;28;20432;-70
2023/07/06 07:47:02;;;;;;;4.70;3.17;;;19.40;76.50;;;;;;4996392;28;20424;-69
2023/07/06 07:49:29;;;;;;;5.07;3.20;;;19.40;75.80;;;;;;4996160;28;20431;-70
2023/07/06 07:51:56;;;;;;;4.70;3.50;;;19.40;77.30;;;;;;4995888;28;20495;-72
2023/07/06 07:54:23;;;;;;;4.90;2.77;;;19.50;78.10;;;;;;4995987;28;20435;-69
2023/07/06 07:56:53;;;;;;;5.10;3.03;;;19.50;78.00;;;;;;4995613;28;20435;-70
2023/07/06 07:59:23;;;;;;;3.83;2.53;;;19.60;75.80;;;;;;4995565;28;20926;-70
2023/07/06 08:01:50;;;;;;;4.13;2.50;;;19.70;75.40;;;;;;4995427;28;20972;-70
2023/07/06 08:04:20;;;;;;;4.30;3.13;;;19.90;75.60;;;;;;4995739;28;20443;-70
2023/07/06 08:06:47;;;;;;;5.17;3.43;;;20.00;76.70;;;;;;4995686;28;20508;-69
2023/07/06 08:09:17;;;;;;;4.90;2.83;;;20.20;75.40;;;;;;4995272;28;20479;-69
2023/07/06 08:11:45;;;;;;;4.77;3.00;;;20.40;72.10;;;;;;4995537;28;20421;-69
2023/07/06 08:14:31;;;;;;;8.37;4.00;;;20.50;72.50;;;;;;4995382;28;20477;-74
2023/07/06 08:16:59;;;;;;;3.67;2.33;;;20.60;73.00;;;;;;4995577;28;20420;-70
2023/07/06 08:19:27;;;;;;;9.30;3.50;;;20.80;72.30;;;;;;4995458;28;20446;-69
2023/07/06 08:21:59;;;;;;;4.60;3.40;;;21.00;70.20;;;;;;4995390;28;20440;-69
2023/07/06 08:24:27;;;;;;;7.40;3.63;;;21.10;69.60;;;;;;4995109;28;20457;-69
2023/07/06 08:26:54;;;;;;;6.57;2.90;;;21.20;70.00;;;;;;4995207;28;20473;-70
2023/07/06 08:29:22;;;;;;;4.33;2.90;;;21.30;71.40;;;;;;4994541;28;20494;-69
2023/07/06 08:31:50;;;;;;;5.53;2.80;;;21.50;70.00;;;;;;4995393;28;20428;-69
2023/07/06 08:34:17;;;;;;;5.00;3.33;;;21.80;69.00;;;;;;4995188;28;20879;-69
2023/07/06 08:36:47;;;;;;;4.57;2.60;;;21.90;68.40;;;;;;4995131;28;20440;-69
2023/07/06 08:39:14;;;;;;;4.83;2.90;;;22.10;67.50;;;;;;4995083;28;20461;-69
2023/07/06 08:41:46;;;;;;;5.30;3.53;;;22.40;68.30;;;;;;4994878;28;20841;-70
2023/07/06 08:44:15;;;;;;;5.43;2.93;;;22.50;66.10;;;;;;4994766;28;20418;-70
2023/07/06 08:46:45;;;;;;;5.93;3.70;;;22.70;63.70;;;;;;4995046;28;20511;-69
2023/07/06 08:49:27;;;;;;;4.93;3.20;;;22.80;62.60;;;;;;4995056;28;20906;-69
2023/07/06 08:51:56;;;;;;;5.70;3.10;;;22.80;61.00;;;;;;4994977;28;20422;-70
2023/07/06 08:54:26;;;;;;;7.33;3.40;;;23.00;61.10;;;;;;4994445;28;20497;-70
2023/07/06 08:56:56;;;;;;;5.43;3.07;;;23.10;59.70;;;;;;4995042;28;20438;-69
2023/07/06 08:59:34;;;;;;;4.70;3.13;;;23.20;58.40;;;;;;4995072;28;20900;-69
2023/07/06 09:02:19;;;;;;;4.37;2.77;;;23.20;60.00;;;;;;4995001;28;20488;-69
2023/07/06 09:04:47;;;;;;;5.40;3.17;;;23.30;57.10;;;;;;4994922;28;20427;-70
2023/07/06 09:07:17;;;;;;;7.77;3.00;;;23.40;57.40;;;;;;4994282;28;20779;-70
2023/07/06 09:09:47;;;;;;;5.70;3.67;;;23.50;56.60;;;;;;4994743;28;20425;-69
2023/07/06 09:12:24;;;;;;;4.80;3.10;;;23.50;55.70;;;;;;4994492;28;20443;-69
2023/07/06 09:14:52;;;;;;;5.87;2.77;;;23.50;55.70;;;;;;4994918;28;20428;-69
2023/07/06 09:17:21;;;;;;;4.97;3.17;;;23.50;56.20;;;;;;4994740;28;20468;-69
2023/07/06 09:19:50;;;;;;;3.50;2.40;;;23.50;56.60;;;;;;4994607;28;20438;-69
2023/07/06 09:22:21;;;;;;;4.73;2.60;;;23.50;55.60;;;;;;4994361;28;20445;-69
2023/07/06 09:24:51;;;;;;;4.37;2.97;;;23.60;55.50;;;;;;4994604;28;20424;-69
2023/07/06 09:27:20;;;;;;;4.53;2.90;;;23.60;55.70;;;;;;4994458;28;20434;-70
2023/07/06 09:30:00;;;;;;;3.80;2.70;;;23.60;56.40;;;;;;4994377;28;20431;-69
2023/07/06 09:32:29;;;;;;;4.57;3.07;;;23.70;56.90;;;;;;4994324;28;20419;-69
2023/07/06 09:35:06;;;;;;;6.10;3.40;;;23.80;57.30;;;;;;4994312;28;20470;-69
2023/07/06 09:37:44;;;;;;;4.60;2.90;;;23.90;57.00;;;;;;4994319;28;20783;-69
2023/07/06 09:40:12;;;;;;;5.73;3.60;;;24.00;55.70;;;;;;4995461;28;20415;-69
2023/07/06 09:42:39;;;;;;;4.47;2.80;;;23.90;56.10;;;;;;4997936;28;20992;-69
2023/07/06 09:45:21;;;;;;;4.40;2.90;;;24.00;55.80;;;;;;4998390;28;20498;-69
2023/07/06 09:47:56;;;;;;;5.77;3.77;;;24.00;56.10;;;;;;4998066;28;21008;-69
2023/07/06 09:50:32;;;;;;;7.17;3.50;;;24.00;54.90;;;;;;4998254;28;20813;-70
2023/07/06 09:53:01;;;;;;;6.00;3.17;;;24.10;56.20;;;;;;4998106;28;20552;-69
2023/07/06 09:55:30;;;;;;;5.20;3.50;;;24.30;56.20;;;;;;4997836;28;20426;-69
2023/07/06 09:58:03;;;;;;;5.13;3.23;;;24.30;55.00;;;;;;4998078;28;20529;-69
2023/07/06 10:00:35;;;;;;;6.77;3.60;;;24.30;53.20;;;;;;4997755;28;20893;-69
2023/07/06 10:03:11;;;;;;;4.70;2.60;;;24.30;54.40;;;;;;4998057;28;20462;-69
2023/07/06 10:05:51;;;;;;;5.60;3.77;;;24.50;56.40;;;;;;4997961;28;20430;-69
2023/07/06 10:08:23;;;;;;;7.00;2.70;;;24.60;56.10;;;;;;4997435;28;20522;-69
2023/07/06 10:10:59;;;;;;;3.70;2.70;;;24.70;53.20;;;;;;4998036;28;20418;-69
2023/07/06 10:13:36;;;;;;;4.60;3.07;;;24.80;54.80;;;;;;4997523;28;20466;-69
2023/07/06 10:16:11;;;;;;;3.40;2.37;;;24.90;54.70;;;;;;4997862;28;20818;-69
2023/07/06 10:18:45;;;;;;;5.80;3.60;;;25.10;54.50;;;;;;4997767;28;20857;-69
2023/07/06 10:21:20;;;;;;;4.30;2.80;;;25.20;54.40;;;;;;4997411;28;20420;-70
2023/07/06 10:23:57;;;;;;;5.40;3.70;;;25.30;55.00;;;;;;4997898;28;20421;-69
2023/07/06 10:26:30;;;;;;;6.33;3.80;;;25.50;55.00;;;;;;4997267;28;20426;-69
2023/07/06 10:29:01;;;;;;;5.80;3.47;;;25.60;52.90;;;;;;4997524;28;20427;-69
2023/07/06 10:31:33;;;;;;;5.23;3.20;;;25.70;50.60;;;;;;4997598;28;20435;-69
2023/07/06 10:34:06;;;;;;;6.73;3.70;;;25.80;50.80;;;;;;4997365;28;20508;-69
2023/07/06 10:36:35;;;;;;;5.33;3.50;;;25.80;49.90;;;;;;4997417;28;20503;-69
2023/07/06 10:39:13;;;;;;;3.67;3.00;;;25.80;49.70;;;;;;4997417;28;20535;-69
2023/07/06 10:41:45;;;;;;;6.43;3.50;;;25.70;50.70;;;;;;4997311;28;20925;-69
2023/07/06 10:44:44;;;;;;;4.97;3.60;;;25.80;51.60;;;;;;4997321;28;20427;-69
2023/07/06 10:47:35;;;;;;;5.07;3.40;;;25.90;53.40;;;;;;4996856;28;20910;-69
2023/07/06 10:50:23;;;;;;;4.80;3.73;;;26.10;51.90;;;;;;4997077;28;20462;-69
2023/07/06 10:53:01;;;;;;;4.40;3.30;;;26.20;50.80;;;;;;4996727;28;20427;-69
2023/07/06 10:55:34;;;;;;;4.73;3.10;;;26.20;49.50;;;;;;4996855;28;20417;-69
2023/07/06 10:58:27;;;;;;;4.20;3.03;;;26.20;49.20;;;;;;4997028;28;20420;-69
2023/07/06 11:00:56;;;;;;;5.50;3.27;;;26.20;47.80;;;;;;4995166;28;20535;-69
2023/07/06 11:03:27;;;;;;;5.43;3.53;;;26.10;47.50;;;;;;4996656;28;20428;-69
2023/07/06 11:06:05;;;;;;;6.37;4.00;;;26.00;47.20;;;;;;4996945;28;20416;-69
2023/07/06 11:09:01;;;;;;;6.33;3.00;;;25.90;47.80;;;;;;4996886;28;20427;-69
2023/07/06 11:11:34;;;;;;;4.50;3.13;;;25.80;47.40;;;;;;4996800;28;20416;-69
2023/07/06 11:14:19;;;;;;;4.40;3.20;;;25.80;47.80;;;;;;4996672;28;20460;-69
2023/07/06 11:17:02;;;;;;;4.73;3.43;;;25.90;48.80;;;;;;4996955;28;20416;-69
2023/07/06 11:19:34;;;;;;;5.10;3.27;;;25.90;47.00;;;;;;4996728;28;20428;-69
2023/07/06 11:22:06;;;;;;;4.43;3.37;;;25.90;47.10;;;;;;4996557;28;20416;-69
2023/07/06 11:24:39;;;;;;;3.80;2.90;;;25.90;47.50;;;;;;4996350;28;20903;-69
2023/07/06 11:27:24;;;;;;;4.73;2.60;;;26.00;48.40;;;;;;4996559;28;20513;-70
2023/07/06 11:30:01;;;;;;;4.63;3.30;;;26.10;49.70;;;;;;4996495;28;20511;-69
2023/07/06 11:32:38;;;;;;;5.83;3.17;;;26.20;50.40;;;;;;4996799;28;20427;-69
2023/07/06 11:35:25;;;;;;;5.43;4.20;;;26.40;49.90;;;;;;4996250;28;20466;-70
2023/07/06 11:38:06;;;;;;;4.47;3.10;;;26.50;47.00;;;;;;4996310;28;20448;-69
2023/07/06 11:40:42;;;;;;;4.60;3.43;;;26.50;46.80;;;;;;4996389;28;20428;-69
2023/07/06 11:43:30;;;;;;;6.97;3.83;;;26.50;46.70;;;;;;4995879;28;20546;-69
2023/07/06 11:46:14;;;;;;;4.70;2.70;;;26.60;45.90;;;;;;4996422;28;20474;-69
2023/07/06 11:48:50;;;;;;;12.93;3.10;;;26.60;44.80;;;;;;4995839;28;20431;-69
2023/07/06 11:51:19;;;;;;;5.97;3.80;;;26.70;46.50;;;;;;4996045;28;20823;-69
2023/07/06 11:53:57;;;;;;;6.30;3.30;;;26.70;45.20;;;;;;4995666;28;20463;-69
2023/07/06 11:56:49;;;;;;;6.30;3.50;;;26.80;44.60;;;;;;4996039;28;20475;-69
2023/07/06 11:59:38;;;;;;;5.60;3.13;;;26.80;43.30;;;;;;4995950;28;20518;-69
2023/07/06 12:02:15;;;;;;;4.13;3.63;;;26.70;41.50;;;;;;4995327;28;20417;-69
2023/07/06 12:04:45;;;;;;;4.70;3.33;;;26.60;42.50;;;;;;4995537;28;20452;-69
2023/07/06 12:07:27;;;;;;;7.03;4.10;;;26.50;43.70;;;;;;4995440;28;20972;-69
2023/07/06 12:09:55;;;;;;;4.73;3.40;;;26.60;45.80;;;;;;4995813;28;20449;-69
2023/07/06 12:12:24;;;;;;;4.57;2.90;;;26.80;46.50;;;;;;4995697;28;20436;-69
2023/07/06 12:14:57;;;;;;;4.80;3.30;;;27.00;46.30;;;;;;4995605;28;20499;-69
2023/07/06 12:17:24;;;;;;;5.10;3.27;;;27.10;45.40;;;;;;4995223;28;20421;-69
2023/07/06 12:19:57;;;;;;;5.20;4.00;;;27.10;43.70;;;;;;4995701;28;20499;-69
2023/07/06 12:22:24;;;;;;;4.87;2.83;;;27.10;43.30;;;;;;4995569;28;20416;-69
2023/07/06 12:24:53;;;;;;;4.87;3.07;;;27.00;42.50;;;;;;4995194;28;20929;-69
2023/07/06 12:27:20;;;;;;;5.70;3.47;;;27.00;42.60;;;;;;4995421;28;20786;-69
2023/07/06 12:29:47;;;;;;;4.80;3.30;;;27.00;43.10;;;;;;4995095;28;20519;-69
2023/07/06 12:32:19;;;;;;;5.17;3.30;;;27.00;44.40;;;;;;4995392;28;20770;-69
2023/07/06 12:34:50;;;;;;;7.00;4.07;;;27.10;43.70;;;;;;4995142;28;20495;-69
2023/07/06 12:37:19;;;;;;;6.70;3.13;;;27.20;42.40;;;;;;4995126;28;20479;-70
2023/07/06 12:39:48;;;;;;;5.20;3.57;;;27.30;41.60;;;;;;4994870;28;20482;-69
2023/07/06 12:42:17;;;;;;;4.53;3.37;;;27.30;41.30;;;;;;4994852;28;20463;-69
2023/07/06 12:44:45;;;;;;;7.50;3.37;;;27.30;40.20;;;;;;4995009;28;20463;-69
2023/07/06 12:47:24;;;;;;;4.70;2.97;;;27.20;40.20;;;;;;4995064;28;20837;-69
2023/07/06 12:49:52;;;;;;;4.87;3.40;;;27.20;41.50;;;;;;4994644;28;20451;-69
2023/07/06 12:52:23;;;;;;;4.30;3.23;;;27.20;40.90;;;;;;4994821;28;20428;-69
2023/07/06 12:54:52;;;;;;;5.07;3.60;;;27.30;41.70;;;;;;4994921;28;20482;-69
2023/07/06 12:57:23;;;;;;;4.90;3.30;;;27.30;42.60;;;;;;4994956;28;20848;-69
2023/07/06 12:59:54;;;;;;;3.93;2.87;;;27.40;42.20;;;;;;4994923;28;20431;-69
2023/07/06 13:02:24;;;;;;;6.30;3.43;;;27.60;42.00;;;;;;4994915;28;20438;-69
2023/07/06 13:04:52;;;;;;;5.17;3.33;;;27.70;40.70;;;;;;4994846;28;20420;-69
2023/07/06 13:07:22;;;;;;;5.00;3.20;;;27.70;40.10;;;;;;4994705;28;20843;-69